Dock, Kentucky
Current Conditions -  °F | °C
As of 5:55 PM on Thursday 27 Nov 2014 (Local Time) from KSJS Reporting Station
Overcast Overcast  
Wind Chill: 31°   Ceiling: 4800
Heat Index: 31°   Visibility: 10mi
Dew Point: 25°   Wind: 3mph
Humidity: 79%   Direction: 260°W
Pressure: 30.31"   Gusts: NA
Location:  37.6405°N, 82.8256°W
Report Text: KSJS 272255Z AUTO 26003KT 10SM OVC048 M01/M04 A3031 RMK AO2 T10071040
Loading
Personal Weather Stations






























Interactive Weather Map New forecast layout! Learn more

10-Day Weather Forecast

Advertisements
Track Severe Weather on mobile